createdAt,value
2019-04-25T00:00:43.094Z,10.50
2019-04-25T00:03:15.405Z,16.50
2019-04-25T00:05:47.163Z,12.10
2019-04-25T00:08:18.985Z,11.73
2019-04-25T00:10:51.705Z,15.23
2019-04-25T00:13:23.726Z,13.90
2019-04-25T00:15:55.776Z,15.03
2019-04-25T00:18:27.810Z,11.63
2019-04-25T00:21:05.398Z,12.10
2019-04-25T00:23:39.392Z,13.63
2019-04-25T00:26:21.091Z,11.13
2019-04-25T00:28:53.467Z,15.10
2019-04-25T00:31:26.098Z,13.87
2019-04-25T00:33:58.276Z,11.77
2019-04-25T00:36:29.888Z,14.03
2019-04-25T00:39:01.954Z,12.57
2019-04-25T00:41:34.151Z,10.13
2019-04-25T00:44:07.105Z,14.27
2019-04-25T00:46:39.105Z,14.17
2019-04-25T00:49:12.252Z,12.37
2019-04-25T00:51:44.536Z,13.97
2019-04-25T00:54:16.242Z,16.13
2019-04-25T00:56:49.605Z,12.67
2019-04-25T00:59:38.257Z,16.30
2019-04-25T01:02:21.494Z,11.47
2019-04-25T01:04:54.149Z,17.77
2019-04-25T01:07:25.857Z,12.40
2019-04-25T01:09:57.707Z,13.67
2019-04-25T01:12:29.560Z,10.13
2019-04-25T01:15:01.645Z,14.83
2019-04-25T01:17:33.366Z,9.97
2019-04-25T01:20:07.135Z,13.87
2019-04-25T01:22:38.767Z,10.43
2019-04-25T01:25:11.676Z,16.17
2019-04-25T01:27:43.390Z,12.50
2019-04-25T01:30:16.490Z,13.23
2019-04-25T01:32:56.668Z,14.33
2019-04-25T01:35:54.813Z,12.93
2019-04-25T01:38:44.463Z,15.37
2019-04-25T01:41:26.430Z,19.90
2019-04-25T01:44:05.985Z,15.57
2019-04-25T01:46:40.611Z,12.87
2019-04-25T01:49:14.003Z,11.80
2019-04-25T01:51:46.278Z,13.17
2019-04-25T01:54:18.227Z,13.13
2019-04-25T01:56:50.813Z,9.17
2019-04-25T01:59:23.718Z,13.23
2019-04-25T02:01:56.759Z,15.40
2019-04-25T02:04:28.394Z,10.70
2019-04-25T02:06:59.962Z,13.90
2019-04-25T02:09:31.622Z,14.50
2019-04-25T02:12:24.190Z,14.27
2019-04-25T02:14:56.889Z,8.50
2019-04-25T02:17:29.453Z,11.40
2019-04-25T02:20:02.081Z,12.50
2019-04-25T02:22:35.532Z,10.27
2019-04-25T02:25:07.313Z,17.97
2019-04-25T02:27:39.292Z,16.83
2019-04-25T02:30:12.351Z,12.83
2019-04-25T02:32:44.314Z,15.37
2019-04-25T02:35:17.837Z,10.57
2019-04-25T02:37:49.787Z,16.43
2019-04-25T02:40:23.957Z,8.83
2019-04-25T02:42:58.558Z,10.50
2019-04-25T02:46:00.539Z,18.20
2019-04-25T02:49:07.137Z,11.20
2019-04-25T02:51:41.593Z,15.57
2019-04-25T02:54:13.989Z,15.87
2019-04-25T02:56:46.697Z,13.33
2019-04-25T02:59:18.831Z,12.80
2019-04-25T03:01:50.544Z,12.23
2019-04-25T03:04:23.913Z,15.30
2019-04-25T03:06:57.146Z,11.93
2019-04-25T03:09:29.040Z,11.47
2019-04-25T03:12:01.776Z,12.77
2019-04-25T03:14:35.207Z,17.67
2019-04-25T03:17:09.748Z,13.43
2019-04-25T03:20:07.935Z,11.77
2019-04-25T03:22:37.694Z,15.77
2019-04-25T03:25:13.511Z,16.93
2019-04-25T03:27:44.398Z,13.70
2019-04-25T03:30:17.839Z,14.67
2019-04-25T03:32:51.634Z,12.93
2019-04-25T03:35:23.381Z,16.30
2019-04-25T03:37:55.420Z,14.57
2019-04-25T03:40:27.435Z,11.07
2019-04-25T03:42:59.166Z,14.73
2019-04-25T03:45:31.134Z,12.27
2019-04-25T03:48:05.226Z,15.60
2019-04-25T03:50:36.766Z,12.33
2019-04-25T03:53:08.782Z,14.63
2019-04-25T03:55:40.424Z,15.03
2019-04-25T03:58:13.109Z,11.43
2019-04-25T04:00:46.008Z,11.90
2019-04-25T04:03:18.100Z,13.10
2019-04-25T04:05:49.861Z,21.57
2019-04-25T04:08:21.872Z,15.17
2019-04-25T04:10:54.316Z,12.80
2019-04-25T04:13:26.532Z,16.10
2019-04-25T04:15:58.401Z,18.37
2019-04-25T04:18:38.832Z,15.20
2019-04-25T04:21:46.942Z,15.70
2019-04-25T04:24:44.054Z,12.80
2019-04-25T04:27:20.174Z,16.13
2019-04-25T04:29:51.913Z,18.53
2019-04-25T04:32:24.265Z,15.03
2019-04-25T04:34:56.138Z,11.83
2019-04-25T04:37:28.233Z,13.63
2019-04-25T04:40:00.068Z,16.87
2019-04-25T04:42:33.637Z,15.23
2019-04-25T04:45:05.368Z,15.77
2019-04-25T04:47:37.066Z,16.03
2019-04-25T04:50:12.820Z,16.63
2019-04-25T04:52:45.212Z,13.23
2019-04-25T04:55:18.580Z,13.17
2019-04-25T04:57:50.854Z,14.97
2019-04-25T05:00:24.656Z,14.80
2019-04-25T05:03:08.624Z,19.97
2019-04-25T05:05:53.505Z,22.50
2019-04-25T05:08:33.865Z,13.60
2019-04-25T05:11:05.908Z,15.67
2019-04-25T05:13:38.426Z,13.17
2019-04-25T05:16:11.181Z,20.07
2019-04-25T05:18:44.650Z,16.37
2019-04-25T05:21:17.168Z,16.77
2019-04-25T05:23:50.005Z,18.40
2019-04-25T05:26:24.884Z,15.93
2019-04-25T05:28:56.407Z,13.80
2019-04-25T05:31:38.811Z,9.93
2019-04-25T05:34:11.015Z,14.03
2019-04-25T05:36:43.877Z,16.20
2019-04-25T05:39:24.109Z,11.43
2019-04-25T05:42:04.274Z,14.07
2019-04-25T05:44:37.228Z,13.70
2019-04-25T05:47:09.295Z,18.10
2019-04-25T05:49:41.474Z,11.13
2019-04-25T05:52:13.983Z,15.73
2019-04-25T05:54:46.340Z,13.87
2019-04-25T05:57:18.332Z,11.87
2019-04-25T05:59:50.683Z,14.90
2019-04-25T06:02:24.462Z,11.90
2019-04-25T06:04:56.158Z,12.47
2019-04-25T06:07:28.278Z,16.83
2019-04-25T06:10:25.691Z,16.10
2019-04-25T06:13:31.028Z,12.77
2019-04-25T06:16:08.912Z,15.20
2019-04-25T06:19:11.325Z,9.00
2019-04-25T06:21:33.673Z,16.30
2019-04-25T06:24:30.158Z,16.90
2019-04-25T06:27:28.864Z,14.77
2019-04-25T06:30:24.580Z,17.37
2019-04-25T06:32:56.679Z,13.80
2019-04-25T06:35:29.560Z,18.90
2019-04-25T06:38:01.480Z,11.23
2019-04-25T06:40:41.418Z,13.37
2019-04-25T06:43:13.657Z,11.57
2019-04-25T06:46:05.242Z,13.17
2019-04-25T06:48:45.544Z,13.03
2019-04-25T06:51:18.172Z,15.50
2019-04-25T06:53:50.504Z,12.73
2019-04-25T06:56:24.817Z,16.60
2019-04-25T06:58:56.468Z,14.07
2019-04-25T07:01:28.935Z,14.57
2019-04-25T07:04:08.788Z,14.10
2019-04-25T07:06:41.493Z,14.13
2019-04-25T07:09:14.624Z,15.03
2019-04-25T07:11:48.185Z,15.30
2019-04-25T07:14:20.194Z,12.30
2019-04-25T07:16:59.856Z,11.07
2019-04-25T07:19:32.140Z,11.37
2019-04-25T07:22:04.282Z,16.17
2019-04-25T07:24:36.567Z,14.03
2019-04-25T07:27:35.664Z,11.50
2019-04-25T07:30:50.076Z,18.20
2019-04-25T07:33:19.070Z,12.07
2019-04-25T07:35:51.336Z,29.53
2019-04-25T07:38:25.541Z,18.53
2019-04-25T07:40:57.834Z,14.87
2019-04-25T07:43:30.112Z,18.63
2019-04-25T07:46:03.370Z,12.80
2019-04-25T07:48:37.178Z,17.87
2019-04-25T07:51:09.156Z,14.73
2019-04-25T07:53:48.846Z,13.07
2019-04-25T07:56:20.923Z,9.60
2019-04-25T07:58:54.730Z,16.20
2019-04-25T08:01:26.883Z,13.30
2019-04-25T08:04:00.167Z,18.97
2019-04-25T08:06:33.352Z,13.00
2019-04-25T08:09:08.588Z,11.50
2019-04-25T08:11:48.287Z,15.10
2019-04-25T08:14:40.149Z,17.10
2019-04-25T08:17:14.429Z,13.93
2019-04-25T08:19:54.369Z,21.03
2019-04-25T08:22:26.964Z,15.00
2019-04-25T08:24:59.622Z,15.40
2019-04-25T08:27:34.154Z,13.00
2019-04-25T08:30:06.323Z,12.27
2019-04-25T08:32:46.047Z,14.27
2019-04-25T08:35:18.210Z,13.60
2019-04-25T08:37:49.952Z,14.53
2019-04-25T08:40:23.849Z,9.60
2019-04-25T08:42:55.598Z,16.27
2019-04-25T08:45:28.166Z,12.43
2019-04-25T08:48:00.277Z,13.20
2019-04-25T08:50:45.550Z,17.83
2019-04-25T08:53:17.709Z,16.60
2019-04-25T08:56:05.192Z,19.67
2019-04-25T08:59:07.826Z,12.33
2019-04-25T09:01:53.548Z,14.50
2019-04-25T09:04:35.655Z,14.03
2019-04-25T09:07:07.976Z,10.80
2019-04-25T09:09:41.124Z,18.60
2019-04-25T09:12:21.114Z,13.80
2019-04-25T09:14:54.201Z,12.87
2019-04-25T09:17:26.765Z,13.03
2019-04-25T09:19:58.983Z,15.27
2019-04-25T09:22:35.304Z,10.93
2019-04-25T09:25:08.118Z,14.73
2019-04-25T09:27:40.926Z,9.53
2019-04-25T09:30:15.438Z,14.73
2019-04-25T09:32:47.865Z,12.80
2019-04-25T09:35:20.233Z,12.53
2019-04-25T09:37:53.526Z,15.07
2019-04-25T09:40:27.125Z,20.40
2019-04-25T09:42:59.283Z,14.37
2019-04-25T09:45:53.304Z,16.03
2019-04-25T09:48:32.200Z,17.20
2019-04-25T09:51:09.368Z,15.50
2019-04-25T09:53:48.990Z,18.97
2019-04-25T09:56:38.221Z,13.57
2019-04-25T09:59:27.244Z,15.87
2019-04-25T10:01:55.192Z,13.83
2019-04-25T10:04:34.882Z,10.67
2019-04-25T10:07:07.061Z,11.53
2019-04-25T10:09:39.859Z,16.47
2019-04-25T10:12:12.982Z,12.63
2019-04-25T10:15:22.030Z,17.33
2019-04-25T10:17:54.255Z,13.63
2019-04-25T10:20:26.276Z,15.63
2019-04-25T10:22:58.158Z,13.70
2019-04-25T10:25:33.340Z,16.07
2019-04-25T10:28:05.796Z,14.07
2019-04-25T10:30:39.417Z,10.40
2019-04-25T10:33:11.936Z,24.00
2019-04-25T10:35:52.085Z,14.83
2019-04-25T10:38:18.031Z,15.27
2019-04-25T10:40:50.182Z,13.17
2019-04-25T10:43:23.899Z,19.20
2019-04-25T10:45:56.454Z,15.23
2019-04-25T10:48:36.383Z,16.30
2019-04-25T10:51:08.508Z,14.10
2019-04-25T10:53:40.997Z,18.67
2019-04-25T10:56:14.659Z,14.03
2019-04-25T10:58:47.934Z,12.37
2019-04-25T11:01:20.596Z,14.47
2019-04-25T11:04:02.520Z,9.80
2019-04-25T11:06:34.150Z,19.43
2019-04-25T11:09:08.929Z,10.60
2019-04-25T11:11:41.563Z,13.17
2019-04-25T11:14:13.576Z,12.40
2019-04-25T11:16:55.323Z,31.60
2019-04-25T11:19:27.404Z,36.13
2019-04-25T11:21:59.410Z,13.67
2019-04-25T11:24:34.221Z,13.80
2019-04-25T11:27:08.559Z,15.13
2019-04-25T11:29:41.632Z,10.50
2019-04-25T11:32:15.451Z,20.47
2019-04-25T11:34:48.127Z,16.23
2019-04-25T11:37:21.480Z,16.30
2019-04-25T11:40:08.845Z,26.83
2019-04-25T11:42:40.528Z,16.00
2019-04-25T11:45:14.297Z,14.50
2019-04-25T11:47:47.181Z,23.47
2019-04-25T11:50:19.276Z,19.80
2019-04-25T11:52:52.542Z,20.00
2019-04-25T11:55:25.133Z,14.07
2019-04-25T11:57:57.556Z,13.63
2019-04-25T12:00:29.742Z,15.43
2019-04-25T12:03:03.641Z,15.57
2019-04-25T12:05:35.934Z,18.07
2019-04-25T12:08:08.569Z,12.73
2019-04-25T12:10:40.703Z,50.07
2019-04-25T12:13:15.370Z,13.10
2019-04-25T12:15:48.072Z,12.87
2019-04-25T12:18:20.171Z,15.23
2019-04-25T12:20:53.247Z,11.17
2019-04-25T12:23:25.740Z,12.10
2019-04-25T12:25:57.880Z,11.83
2019-04-25T12:28:30.734Z,21.13
2019-04-25T12:31:02.785Z,16.20
2019-04-25T12:33:34.790Z,15.40
2019-04-25T12:36:07.308Z,19.40
2019-04-25T12:38:39.379Z,15.00
2019-04-25T12:41:11.941Z,19.00
2019-04-25T12:43:50.550Z,18.33
2019-04-25T12:46:34.866Z,15.97
2019-04-25T12:49:06.977Z,20.00
2019-04-25T12:51:40.136Z,10.10
2019-04-25T12:54:13.803Z,12.13
2019-04-25T12:56:49.259Z,12.23
2019-04-25T12:59:21.558Z,21.00
2019-04-25T13:01:54.923Z,23.93
2019-04-25T13:04:27.938Z,14.67
2019-04-25T13:07:00.332Z,16.50
2019-04-25T13:09:32.412Z,14.10
2019-04-25T13:12:06.249Z,19.83
2019-04-25T13:14:39.129Z,15.33
2019-04-25T13:17:11.532Z,17.20
2019-04-25T13:19:44.188Z,17.93
2019-04-25T13:22:16.632Z,13.10
2019-04-25T13:24:49.307Z,15.37
2019-04-25T13:27:45.674Z,19.00
2019-04-25T13:30:42.289Z,13.40
2019-04-25T13:33:45.443Z,12.93
2019-04-25T13:36:19.304Z,16.13
2019-04-25T13:38:51.415Z,22.40
2019-04-25T13:41:23.472Z,15.93
2019-04-25T13:43:55.490Z,14.37
2019-04-25T13:46:29.678Z,14.47
2019-04-25T13:49:01.803Z,13.97
2019-04-25T13:51:33.870Z,16.80
2019-04-25T13:54:06.445Z,17.43
2019-04-25T13:56:40.506Z,17.67
2019-04-25T13:59:13.506Z,18.83
2019-04-25T14:01:46.633Z,22.20
2019-04-25T14:04:19.005Z,17.10
2019-04-25T14:06:51.488Z,16.10
2019-04-25T14:09:25.874Z,16.87
2019-04-25T14:11:58.104Z,29.37
2019-04-25T14:14:30.302Z,19.00
2019-04-25T14:17:38.394Z,17.07
2019-04-25T14:20:21.797Z,19.90
2019-04-25T14:22:54.260Z,13.33
2019-04-25T14:25:27.620Z,17.30
2019-04-25T14:28:00.438Z,22.70
2019-04-25T14:30:35.928Z,14.70
2019-04-25T14:33:08.422Z,19.13
2019-04-25T14:35:40.268Z,16.93
2019-04-25T14:38:13.842Z,20.40
2019-04-25T14:40:45.602Z,17.30
2019-04-25T14:43:19.000Z,21.47
2019-04-25T14:45:51.104Z,19.07
2019-04-25T14:48:23.586Z,20.87
2019-04-25T14:50:56.329Z,15.80
2019-04-25T14:53:28.304Z,17.47
2019-04-25T14:56:15.329Z,17.83
2019-04-25T14:58:47.634Z,15.47
2019-04-25T15:01:22.691Z,19.37
2019-04-25T15:03:55.311Z,18.70
2019-04-25T15:06:27.764Z,18.13
2019-04-25T15:09:00.279Z,15.07
2019-04-25T15:11:32.335Z,21.50
2019-04-25T15:14:04.375Z,16.40
2019-04-25T15:16:36.646Z,19.97
2019-04-25T15:19:09.289Z,18.10
2019-04-25T15:21:41.594Z,20.90
2019-04-25T15:24:14.145Z,22.30
2019-04-25T15:26:46.125Z,20.17
2019-04-25T15:29:18.179Z,22.37
2019-04-25T15:31:56.106Z,19.07
2019-04-25T15:34:26.192Z,19.87
2019-04-25T15:37:17.668Z,15.63
2019-04-25T15:40:02.352Z,17.57
2019-04-25T15:42:49.202Z,26.33
2019-04-25T15:45:47.636Z,16.20
2019-04-25T15:48:21.143Z,12.87
2019-04-25T15:50:53.925Z,23.23
2019-04-25T15:53:25.607Z,14.60
2019-04-25T15:55:57.996Z,15.87
2019-04-25T15:58:30.337Z,22.47
2019-04-25T16:01:02.482Z,13.77
2019-04-25T16:03:35.214Z,13.43
2019-04-25T16:06:07.385Z,15.90
2019-04-25T16:08:39.651Z,18.83
2019-04-25T16:11:12.254Z,17.13
2019-04-25T16:13:44.450Z,22.67
2019-04-25T16:16:16.844Z,20.93
2019-04-25T16:18:49.037Z,18.00
2019-04-25T16:21:21.268Z,21.43
2019-04-25T16:23:53.311Z,23.77
2019-04-25T16:26:25.772Z,19.67
2019-04-25T16:28:57.969Z,23.10
2019-04-25T16:31:30.474Z,19.43
2019-04-25T16:34:02.506Z,17.67
2019-04-25T16:36:35.191Z,18.30
2019-04-25T16:39:09.644Z,18.27
2019-04-25T16:41:42.603Z,23.80
2019-04-25T16:44:16.329Z,17.00
2019-04-25T16:46:48.810Z,17.57
2019-04-25T16:49:21.059Z,33.70
2019-04-25T16:51:53.095Z,24.57
2019-04-25T16:54:25.723Z,23.60
2019-04-25T16:56:57.806Z,20.77
2019-04-25T16:59:31.334Z,23.63
2019-04-25T17:02:03.835Z,21.90
2019-04-25T17:04:36.005Z,20.50
2019-04-25T17:07:08.969Z,27.03
2019-04-25T17:09:40.804Z,23.97
2019-04-25T17:12:12.744Z,29.67
2019-04-25T17:15:15.179Z,26.40
2019-04-25T17:17:55.217Z,18.20
2019-04-25T17:20:32.288Z,18.27
2019-04-25T17:23:05.693Z,22.57
2019-04-25T17:25:38.195Z,26.03
2019-04-25T17:28:10.360Z,18.67
2019-04-25T17:30:44.403Z,33.90
2019-04-25T17:33:35.942Z,20.07
2019-04-25T17:36:16.497Z,21.00
2019-04-25T17:39:10.170Z,32.63
2019-04-25T17:41:43.110Z,22.57
2019-04-25T17:44:15.302Z,22.93
2019-04-25T17:46:47.699Z,24.93
2019-04-25T17:49:20.063Z,23.80
2019-04-25T17:51:52.338Z,22.90
2019-04-25T17:54:23.556Z,18.63
2019-04-25T17:56:55.710Z,25.57
2019-04-25T17:59:27.743Z,24.50
2019-04-25T18:01:59.941Z,18.43
2019-04-25T18:04:31.968Z,27.57
2019-04-25T18:07:04.668Z,18.83
2019-04-25T18:09:36.858Z,25.33
2019-04-25T18:12:08.774Z,26.83
2019-04-25T18:14:41.130Z,21.23
2019-04-25T18:17:13.345Z,23.03
2019-04-25T18:19:50.634Z,21.37
2019-04-25T18:22:56.893Z,15.60
2019-04-25T18:26:06.053Z,24.23
2019-04-25T18:28:50.720Z,20.27
2019-04-25T18:31:22.578Z,23.63
2019-04-25T18:33:57.121Z,25.03
2019-04-25T18:36:50.008Z,21.80
2019-04-25T18:39:31.171Z,18.20
2019-04-25T18:42:13.067Z,28.07
2019-04-25T18:44:45.060Z,26.63
2019-04-25T18:47:17.141Z,34.67
2019-04-25T18:49:49.956Z,27.77
2019-04-25T18:52:41.211Z,28.17
2019-04-25T18:55:21.463Z,30.73
2019-04-25T18:58:06.743Z,23.97
2019-04-25T19:00:50.948Z,22.83
2019-04-25T19:03:42.061Z,22.80
2019-04-25T19:06:18.319Z,29.67
2019-04-25T19:08:52.535Z,26.43
2019-04-25T19:11:24.149Z,32.60
2019-04-25T19:13:56.484Z,23.57
2019-04-25T19:16:28.527Z,21.77
2019-04-25T19:19:00.705Z,20.00
2019-04-25T19:21:33.335Z,20.40
2019-04-25T19:24:05.837Z,23.93
2019-04-25T19:26:39.357Z,38.37
2019-04-25T19:29:11.275Z,19.57
2019-04-25T19:31:44.235Z,30.20
2019-04-25T19:34:24.033Z,30.50
2019-04-25T19:36:55.951Z,25.37
2019-04-25T19:39:29.512Z,24.47
2019-04-25T19:42:18.560Z,23.00
2019-04-25T19:44:51.254Z,27.87
2019-04-25T19:47:23.336Z,20.53
2019-04-25T19:49:55.706Z,25.03
2019-04-25T19:52:29.595Z,24.93
2019-04-25T19:55:01.424Z,31.03
2019-04-25T19:57:33.334Z,25.03
2019-04-25T20:00:06.070Z,24.00
2019-04-25T20:02:48.731Z,31.53
2019-04-25T20:05:34.295Z,33.83
2019-04-25T20:08:28.469Z,25.80
2019-04-25T20:11:05.127Z,35.23
2019-04-25T20:13:37.002Z,31.17
2019-04-25T20:16:09.346Z,29.80
2019-04-25T20:18:41.440Z,28.03
2019-04-25T20:21:13.537Z,31.63
2019-04-25T20:23:46.472Z,31.93
2019-04-25T20:26:18.847Z,31.07
2019-04-25T20:28:51.248Z,34.90
2019-04-25T20:31:23.566Z,29.97
2019-04-25T20:34:05.290Z,24.63
2019-04-25T20:36:36.854Z,26.90
2019-04-25T20:39:09.652Z,36.07
2019-04-25T20:41:41.834Z,25.40
2019-04-25T20:44:13.246Z,35.80
2019-04-25T20:46:46.613Z,21.83
2019-04-25T20:49:18.620Z,29.67
2019-04-25T20:51:50.612Z,23.80
2019-04-25T20:54:22.748Z,24.17
2019-04-25T20:56:55.146Z,33.37
2019-04-25T20:59:27.277Z,23.63
2019-04-25T21:01:59.237Z,27.20
2019-04-25T21:04:41.525Z,24.83
2019-04-25T21:07:13.596Z,28.50
2019-04-25T21:09:45.910Z,29.37
2019-04-25T21:12:18.021Z,28.93
2019-04-25T21:15:16.572Z,22.93
2019-04-25T21:18:09.404Z,26.60
2019-04-25T21:20:41.428Z,29.67
2019-04-25T21:23:13.536Z,25.43
2019-04-25T21:25:45.811Z,31.60
2019-04-25T21:28:18.176Z,27.40
2019-04-25T21:30:51.226Z,26.90
2019-04-25T21:33:23.279Z,23.60
2019-04-25T21:35:55.770Z,23.67
2019-04-25T21:38:27.851Z,30.03
2019-04-25T21:41:11.081Z,30.20
2019-04-25T21:43:48.898Z,22.43
2019-04-25T21:46:21.009Z,34.37
2019-04-25T21:48:53.568Z,28.80
2019-04-25T21:51:35.671Z,26.07
2019-04-25T21:54:07.602Z,27.33
2019-04-25T21:56:40.030Z,25.57
2019-04-25T21:59:13.356Z,28.90
2019-04-25T22:01:45.642Z,24.80
2019-04-25T22:04:17.366Z,26.90
2019-04-25T22:06:49.904Z,28.97
2019-04-25T22:09:23.087Z,23.90
2019-04-25T22:11:56.343Z,32.30
2019-04-25T22:14:29.027Z,27.77
2019-04-25T22:17:01.878Z,35.73
2019-04-25T22:19:34.210Z,37.10
2019-04-25T22:22:06.869Z,30.80
2019-04-25T22:24:38.912Z,31.47
2019-04-25T22:27:16.308Z,26.90
2019-04-25T22:29:49.796Z,26.43
2019-04-25T22:32:45.645Z,23.27
2019-04-25T22:35:44.636Z,29.50
2019-04-25T22:38:16.921Z,21.90
2019-04-25T22:40:48.955Z,28.33
2019-04-25T22:43:22.024Z,29.07
2019-04-25T22:45:54.058Z,28.20
2019-04-25T22:48:47.081Z,27.87
2019-04-25T22:51:19.625Z,24.10
2019-04-25T22:53:51.927Z,25.17
2019-04-25T22:56:23.750Z,25.77
2019-04-25T22:58:55.764Z,23.40
2019-04-25T23:01:39.050Z,25.73
2019-04-25T23:04:17.960Z,25.13
2019-04-25T23:06:50.121Z,29.20
2019-04-25T23:09:22.252Z,30.47
2019-04-25T23:11:54.596Z,22.20
2019-04-25T23:14:26.649Z,28.83
2019-04-25T23:16:58.296Z,27.53
2019-04-25T23:19:30.125Z,26.33
2019-04-25T23:22:01.903Z,32.80
2019-04-25T23:24:35.938Z,22.40
2019-04-25T23:27:16.632Z,25.33
2019-04-25T23:29:48.520Z,44.63
2019-04-25T23:32:20.453Z,25.87
2019-04-25T23:34:52.200Z,26.17
2019-04-25T23:37:23.804Z,26.60
2019-04-25T23:39:55.492Z,27.37
2019-04-25T23:42:27.162Z,29.20
2019-04-25T23:44:59.040Z,25.57
2019-04-25T23:47:30.943Z,30.77
2019-04-25T23:50:02.965Z,21.07
2019-04-25T23:52:34.960Z,28.53
2019-04-25T23:55:08.059Z,24.87
2019-04-25T23:57:40.330Z,30.33
